createdAt,value
2022-11-30T00:00:45.652Z,99.99
2022-11-30T00:01:45.641Z,99.99
2022-11-30T00:02:45.749Z,99.99
2022-11-30T00:03:45.633Z,99.99
2022-11-30T00:04:45.873Z,99.99
2022-11-30T00:05:45.610Z,99.99
2022-11-30T00:06:45.588Z,99.99
2022-11-30T00:07:45.638Z,99.99
2022-11-30T00:08:45.562Z,99.99
2022-11-30T00:09:45.569Z,99.99
2022-11-30T00:10:45.541Z,99.99
2022-11-30T00:11:45.540Z,99.99
2022-11-30T00:12:45.546Z,99.99
2022-11-30T00:13:45.577Z,99.99
2022-11-30T00:14:45.838Z,99.99
2022-11-30T00:15:45.494Z,99.99
2022-11-30T00:16:45.545Z,99.99
2022-11-30T00:17:45.468Z,99.99
2022-11-30T00:18:45.470Z,99.99
2022-11-30T00:19:45.465Z,99.99
2022-11-30T00:20:45.441Z,99.99
2022-11-30T00:21:45.425Z,99.99
2022-11-30T00:22:45.411Z,99.99
2022-11-30T00:23:45.414Z,99.99
2022-11-30T00:24:45.745Z,99.99
2022-11-30T00:25:45.409Z,99.99
2022-11-30T00:26:45.371Z,99.99
2022-11-30T00:27:45.362Z,99.99
2022-11-30T00:28:45.354Z,99.99
2022-11-30T00:29:45.374Z,99.99
2022-11-30T00:30:45.409Z,99.99
2022-11-30T00:31:45.346Z,99.99
2022-11-30T00:32:45.328Z,99.99
2022-11-30T00:33:45.296Z,99.99
2022-11-30T00:34:45.750Z,99.99
2022-11-30T00:35:45.291Z,99.99
2022-11-30T00:36:45.264Z,99.99
2022-11-30T00:37:45.261Z,99.99
2022-11-30T00:38:45.259Z,99.99
2022-11-30T00:39:45.233Z,99.99
2022-11-30T00:40:45.248Z,99.99
2022-11-30T00:41:45.211Z,99.99
2022-11-30T00:42:45.200Z,99.99
2022-11-30T00:43:45.197Z,99.99
2022-11-30T00:44:45.636Z,99.99
2022-11-30T00:45:45.242Z,99.99
2022-11-30T00:46:45.174Z,99.99
2022-11-30T00:47:45.151Z,99.99
2022-11-30T00:48:45.154Z,99.99
2022-11-30T00:49:45.133Z,99.99
2022-11-30T00:50:45.130Z,99.99
2022-11-30T00:51:45.128Z,99.99
2022-11-30T00:52:45.098Z,99.99
2022-11-30T00:53:45.084Z,99.99
2022-11-30T00:54:45.435Z,99.99
2022-11-30T00:55:45.073Z,99.99
2022-11-30T00:56:45.066Z,99.99
2022-11-30T00:57:45.053Z,99.99
2022-11-30T00:58:45.046Z,99.99
2022-11-30T00:59:45.022Z,99.99
2022-11-30T01:00:45.015Z,99.99
2022-11-30T01:01:45.070Z,99.99
2022-11-30T01:02:45.043Z,99.99
2022-11-30T01:03:44.984Z,99.99
2022-11-30T01:04:45.323Z,99.99
2022-11-30T01:05:44.956Z,99.99
2022-11-30T01:06:44.953Z,99.99
2022-11-30T01:07:45.020Z,99.99
2022-11-30T01:08:44.940Z,99.99
2022-11-30T01:09:44.915Z,99.99
2022-11-30T01:10:44.910Z,99.99
2022-11-30T01:11:44.892Z,99.99
2022-11-30T01:12:44.892Z,99.99
2022-11-30T01:13:44.902Z,99.99
2022-11-30T01:14:45.234Z,99.99
2022-11-30T01:15:44.914Z,99.99
2022-11-30T01:16:44.851Z,99.99
2022-11-30T01:17:44.846Z,99.99
2022-11-30T01:18:44.821Z,99.99
2022-11-30T01:19:44.836Z,99.99
2022-11-30T01:20:44.817Z,99.99
2022-11-30T01:21:44.789Z,99.99
2022-11-30T01:22:44.788Z,99.99
2022-11-30T01:23:44.772Z,99.99
2022-11-30T01:24:45.080Z,99.99
2022-11-30T01:25:44.762Z,99.99
2022-11-30T01:26:44.740Z,99.99
2022-11-30T01:27:44.728Z,99.99
2022-11-30T01:28:44.716Z,99.99
2022-11-30T01:29:44.705Z,99.99
2022-11-30T01:30:44.758Z,99.99
2022-11-30T01:31:44.694Z,99.99
2022-11-30T01:32:44.693Z,99.99
2022-11-30T01:33:44.673Z,99.99
2022-11-30T01:34:44.930Z,99.99
2022-11-30T01:35:44.642Z,99.99
2022-11-30T01:36:44.650Z,99.99
2022-11-30T01:37:44.620Z,99.99
2022-11-30T01:38:44.616Z,99.99
2022-11-30T01:39:44.604Z,99.99
2022-11-30T01:40:44.580Z,99.99
2022-11-30T01:41:44.577Z,99.99
2022-11-30T01:42:44.572Z,99.99
2022-11-30T01:43:44.565Z,99.99
2022-11-30T01:44:44.786Z,99.99
2022-11-30T01:45:44.716Z,99.99
2022-11-30T01:46:44.528Z,99.99
2022-11-30T01:47:44.512Z,99.99
2022-11-30T01:48:44.501Z,99.99
2022-11-30T01:49:44.504Z,99.99
2022-11-30T01:50:44.472Z,99.99
2022-11-30T01:51:44.481Z,99.99
2022-11-30T01:52:44.456Z,99.99
2022-11-30T01:53:44.446Z,99.99
2022-11-30T01:54:44.731Z,99.99
2022-11-30T01:55:44.441Z,99.99
2022-11-30T01:56:44.404Z,99.99
2022-11-30T01:57:44.407Z,99.99
2022-11-30T01:58:44.389Z,99.99
2022-11-30T01:59:44.382Z,99.99
2022-11-30T02:00:44.369Z,99.99
2022-11-30T02:01:44.446Z,99.99
2022-11-30T02:02:44.419Z,99.99
2022-11-30T02:03:44.347Z,99.99
2022-11-30T02:04:44.652Z,99.99
2022-11-30T02:05:44.335Z,99.99
2022-11-30T02:06:44.301Z,99.99
2022-11-30T02:07:44.510Z,99.99
2022-11-30T02:08:44.343Z,99.99
2022-11-30T02:09:44.342Z,99.99
2022-11-30T02:10:44.279Z,99.99
2022-11-30T02:11:44.273Z,99.99
2022-11-30T02:12:44.241Z,99.99
2022-11-30T02:13:44.241Z,99.99
2022-11-30T02:14:44.459Z,99.99
2022-11-30T02:15:44.232Z,99.99
2022-11-30T02:16:44.202Z,99.99
2022-11-30T02:17:44.191Z,99.99
2022-11-30T02:18:44.177Z,99.99
2022-11-30T02:19:44.158Z,99.99
2022-11-30T02:20:44.165Z,99.99
2022-11-30T02:21:44.166Z,99.99
2022-11-30T02:22:44.143Z,99.99
2022-11-30T02:23:44.121Z,99.99
2022-11-30T02:24:44.495Z,99.99
2022-11-30T02:25:44.105Z,99.99
2022-11-30T02:26:44.101Z,99.99
2022-11-30T02:27:44.106Z,99.99
2022-11-30T02:28:44.068Z,99.99
2022-11-30T02:29:44.057Z,99.99
2022-11-30T02:30:44.159Z,99.99
2022-11-30T02:31:44.027Z,99.99
2022-11-30T02:32:44.034Z,99.99
2022-11-30T02:33:44.025Z,99.99
2022-11-30T02:34:44.137Z,99.99
2022-11-30T02:35:43.985Z,99.99
2022-11-30T02:36:43.976Z,99.99
2022-11-30T02:37:44.001Z,99.99
2022-11-30T02:38:43.963Z,99.99
2022-11-30T02:39:43.969Z,99.99
2022-11-30T02:40:43.937Z,99.99
2022-11-30T02:41:43.929Z,99.99
2022-11-30T02:42:43.918Z,99.99
2022-11-30T02:43:43.906Z,99.99
2022-11-30T02:44:43.967Z,99.99
2022-11-30T02:45:43.896Z,99.99
2022-11-30T02:46:43.998Z,99.99
2022-11-30T02:47:43.863Z,99.99
2022-11-30T02:48:43.851Z,99.99
2022-11-30T02:49:43.832Z,99.99
2022-11-30T02:50:43.864Z,99.99
2022-11-30T02:51:43.833Z,99.99
2022-11-30T02:52:43.799Z,99.99
2022-11-30T02:53:43.818Z,99.99
2022-11-30T02:54:43.805Z,99.99
2022-11-30T02:55:43.787Z,99.99
2022-11-30T02:56:43.765Z,99.99
2022-11-30T02:57:43.748Z,99.99
2022-11-30T02:58:43.744Z,99.99
2022-11-30T02:59:43.734Z,99.99
2022-11-30T03:00:43.729Z,99.99
2022-11-30T03:01:43.785Z,99.99
2022-11-30T03:02:43.746Z,99.99
2022-11-30T03:03:43.711Z,99.99
2022-11-30T03:04:43.761Z,99.99
2022-11-30T03:05:43.660Z,99.99
2022-11-30T03:06:43.668Z,99.99
2022-11-30T03:07:43.696Z,99.99
2022-11-30T03:08:43.636Z,99.99
2022-11-30T03:09:43.641Z,99.99
2022-11-30T03:10:43.606Z,99.99
2022-11-30T03:11:43.622Z,99.99
2022-11-30T03:12:43.588Z,99.99
2022-11-30T03:13:43.569Z,99.99
2022-11-30T03:14:43.744Z,99.99
2022-11-30T03:15:43.618Z,99.99
2022-11-30T03:16:43.542Z,99.99
2022-11-30T03:17:43.548Z,99.99
2022-11-30T03:18:43.533Z,99.99
2022-11-30T03:19:43.513Z,99.99
2022-11-30T03:20:43.504Z,99.99
2022-11-30T03:21:43.512Z,99.99
2022-11-30T03:22:43.477Z,99.99
2022-11-30T03:23:43.475Z,99.99
2022-11-30T03:24:43.464Z,99.99
2022-11-30T03:25:43.462Z,99.95
2022-11-30T03:26:43.430Z,99.95
2022-11-30T03:27:43.446Z,99.99
2022-11-30T03:28:43.428Z,99.99
2022-11-30T03:29:43.406Z,99.99
2022-11-30T03:30:43.489Z,99.99
2022-11-30T03:31:43.378Z,99.99
2022-11-30T03:32:43.388Z,99.99
2022-11-30T03:33:43.369Z,99.99
2022-11-30T03:34:43.347Z,99.85
2022-11-30T03:35:43.334Z,99.99
2022-11-30T03:36:43.325Z,99.99
2022-11-30T03:37:43.321Z,99.99
2022-11-30T03:38:43.329Z,99.99
2022-11-30T03:39:43.294Z,99.99
2022-11-30T03:40:43.292Z,99.99
2022-11-30T03:41:43.294Z,99.99
2022-11-30T03:42:43.260Z,99.99
2022-11-30T03:43:43.262Z,99.99
2022-11-30T03:44:43.256Z,99.99
2022-11-30T03:45:43.249Z,99.99
2022-11-30T03:46:43.252Z,99.99
2022-11-30T03:47:43.210Z,99.99
2022-11-30T03:48:43.194Z,99.99
2022-11-30T03:49:43.185Z,99.99
2022-11-30T03:50:43.170Z,99.99
2022-11-30T03:51:43.178Z,99.99
2022-11-30T03:52:43.165Z,99.99
2022-11-30T03:53:43.143Z,99.99
2022-11-30T03:54:43.126Z,99.99
2022-11-30T03:55:43.122Z,99.99
2022-11-30T03:56:43.121Z,99.99
2022-11-30T03:57:43.135Z,99.99
2022-11-30T03:58:43.094Z,99.99
2022-11-30T03:59:43.074Z,99.99
2022-11-30T04:00:43.069Z,99.99
2022-11-30T04:01:43.113Z,99.99
2022-11-30T04:02:44.939Z,99.99
2022-11-30T04:03:43.042Z,99.99
2022-11-30T04:04:43.029Z,99.99
2022-11-30T04:05:43.014Z,99.99
2022-11-30T04:06:43.000Z,99.99
2022-11-30T04:07:43.064Z,99.99
2022-11-30T04:08:42.985Z,99.90
2022-11-30T04:09:42.965Z,99.99
2022-11-30T04:10:42.974Z,99.99
2022-11-30T04:11:42.953Z,99.99
2022-11-30T04:12:42.942Z,99.90
2022-11-30T04:13:42.968Z,99.99
2022-11-30T04:14:42.910Z,99.90
2022-11-30T04:15:42.940Z,99.99
2022-11-30T04:16:42.901Z,99.90
2022-11-30T04:17:42.876Z,99.99
2022-11-30T04:18:42.888Z,99.99
2022-11-30T04:19:42.869Z,99.99
2022-11-30T04:20:42.850Z,99.99
2022-11-30T04:21:42.836Z,99.99
2022-11-30T04:22:42.840Z,99.99
2022-11-30T04:23:42.817Z,99.99
2022-11-30T04:24:42.829Z,99.99
2022-11-30T04:25:42.795Z,99.99
2022-11-30T04:26:42.789Z,99.99
2022-11-30T04:27:42.772Z,99.99
2022-11-30T04:28:42.781Z,99.79
2022-11-30T04:29:42.777Z,99.99
2022-11-30T04:30:42.755Z,99.79
2022-11-30T04:31:42.771Z,99.48
2022-11-30T04:32:42.722Z,99.90
2022-11-30T04:33:42.708Z,99.99
2022-11-30T04:34:42.716Z,99.90
2022-11-30T04:35:42.709Z,99.99
2022-11-30T04:36:42.680Z,99.58
2022-11-30T04:37:42.663Z,99.69
2022-11-30T04:38:42.653Z,99.69
2022-11-30T04:39:42.649Z,99.69
2022-11-30T04:40:42.649Z,99.99
2022-11-30T04:41:42.634Z,99.69
2022-11-30T04:42:42.612Z,99.38
2022-11-30T04:43:42.606Z,99.38
2022-11-30T04:44:42.601Z,99.38
2022-11-30T04:45:42.613Z,99.58
2022-11-30T04:46:42.657Z,99.99
2022-11-30T04:47:42.558Z,99.63
2022-11-30T04:48:42.552Z,99.38
2022-11-30T04:49:42.547Z,99.58
2022-11-30T04:50:42.533Z,99.38
2022-11-30T04:51:42.517Z,99.69
2022-11-30T04:52:42.537Z,99.43
2022-11-30T04:53:42.510Z,99.90
2022-11-30T04:54:42.497Z,99.94
2022-11-30T04:55:42.477Z,99.99
2022-11-30T04:56:42.462Z,99.79
2022-11-30T04:57:42.472Z,99.99
2022-11-30T04:58:42.470Z,99.99
2022-11-30T04:59:42.438Z,99.94
2022-11-30T05:00:42.418Z,99.99
2022-11-30T05:01:42.507Z,99.99
2022-11-30T05:02:44.461Z,99.99
2022-11-30T05:03:42.391Z,99.17
2022-11-30T05:04:42.448Z,99.27
2022-11-30T05:05:42.374Z,99.73
2022-11-30T05:06:42.366Z,99.63
2022-11-30T05:07:42.414Z,99.63
2022-11-30T05:08:42.335Z,99.58
2022-11-30T05:09:42.321Z,99.38
2022-11-30T05:10:42.324Z,99.48
2022-11-30T05:11:42.315Z,99.58
2022-11-30T05:12:42.297Z,99.43
2022-11-30T05:13:42.281Z,99.32
2022-11-30T05:14:42.277Z,99.22
2022-11-30T05:15:42.263Z,98.91
2022-11-30T05:16:42.252Z,99.73
2022-11-30T05:17:42.263Z,99.17
2022-11-30T05:18:42.242Z,99.17
2022-11-30T05:19:42.214Z,99.17
2022-11-30T05:20:42.212Z,99.11
2022-11-30T05:21:45.635Z,99.32
2022-11-30T05:22:42.198Z,99.73
2022-11-30T05:23:42.179Z,99.43
2022-11-30T05:24:42.181Z,99.32
2022-11-30T05:25:42.150Z,99.58
2022-11-30T05:26:42.143Z,98.86
2022-11-30T05:27:42.138Z,99.32
2022-11-30T05:28:42.149Z,99.11
2022-11-30T05:29:42.108Z,99.07
2022-11-30T05:30:42.105Z,99.17
2022-11-30T05:31:42.136Z,99.52
2022-11-30T05:32:42.103Z,98.80
2022-11-30T05:33:42.089Z,99.43
2022-11-30T05:34:50.736Z,98.86
2022-11-30T05:35:43.050Z,98.86
2022-11-30T05:36:42.040Z,99.48
2022-11-30T05:37:42.030Z,98.65
2022-11-30T05:38:42.017Z,98.65
2022-11-30T05:39:42.013Z,98.75
2022-11-30T05:40:42.019Z,98.96
2022-11-30T05:41:41.991Z,99.43
2022-11-30T05:42:41.978Z,99.58
2022-11-30T05:43:41.963Z,99.01
2022-11-30T05:44:41.967Z,99.01
2022-11-30T05:45:41.955Z,98.70
2022-11-30T05:46:41.976Z,98.70
2022-11-30T05:47:41.928Z,99.11
2022-11-30T05:48:41.914Z,98.75
2022-11-30T05:49:41.929Z,99.11
2022-11-30T05:50:41.898Z,98.80
2022-11-30T05:51:41.883Z,98.75
2022-11-30T05:52:41.866Z,99.22
2022-11-30T05:53:41.853Z,98.91
2022-11-30T05:54:41.841Z,98.91
2022-11-30T05:55:41.858Z,99.38
2022-11-30T05:56:41.836Z,99.01
2022-11-30T05:57:41.819Z,99.27
2022-11-30T05:58:41.795Z,99.11
2022-11-30T05:59:41.806Z,99.17
2022-11-30T06:00:41.793Z,99.17
2022-11-30T06:01:41.896Z,99.17
2022-11-30T06:02:41.925Z,99.17
2022-11-30T06:03:41.778Z,99.69
2022-11-30T06:04:41.739Z,99.58
2022-11-30T06:05:41.750Z,99.63
2022-11-30T06:06:41.720Z,99.27
2022-11-30T06:07:41.760Z,99.27
2022-11-30T06:08:41.706Z,99.32
2022-11-30T06:09:41.699Z,98.91
2022-11-30T06:10:41.680Z,98.80
2022-11-30T06:11:41.675Z,99.32
2022-11-30T06:12:41.659Z,99.58
2022-11-30T06:13:41.657Z,99.32
2022-11-30T06:14:41.626Z,99.11
2022-11-30T06:15:41.635Z,99.22
2022-11-30T06:16:41.713Z,99.17
2022-11-30T06:17:41.594Z,98.91
2022-11-30T06:18:41.592Z,98.80
2022-11-30T06:19:41.595Z,99.32
2022-11-30T06:20:41.572Z,98.91
2022-11-30T06:21:41.595Z,99.11
2022-11-30T06:22:41.568Z,99.52
2022-11-30T06:23:41.536Z,98.80
2022-11-30T06:24:41.523Z,98.80
2022-11-30T06:25:41.509Z,98.60
2022-11-30T06:26:41.504Z,99.11
2022-11-30T06:27:41.500Z,98.80
2022-11-30T06:28:46.576Z,98.34
2022-11-30T06:29:42.468Z,98.28
2022-11-30T06:30:41.456Z,98.28
2022-11-30T06:31:41.502Z,97.97
2022-11-30T06:32:41.442Z,98.39
2022-11-30T06:33:41.436Z,98.70
2022-11-30T06:34:41.427Z,98.44
2022-11-30T06:35:41.416Z,98.60
2022-11-30T06:36:41.399Z,99.01
2022-11-30T06:37:41.401Z,99.01
2022-11-30T06:38:41.370Z,98.91
2022-11-30T06:40:05.474Z,98.34
2022-11-30T06:40:42.356Z,98.28
2022-11-30T06:41:41.340Z,98.80
2022-11-30T06:42:41.334Z,98.18
2022-11-30T06:43:41.314Z,98.18
2022-11-30T06:44:41.332Z,98.80
2022-11-30T06:45:41.370Z,98.49
2022-11-30T06:46:41.281Z,98.70
2022-11-30T06:47:41.277Z,98.91
2022-11-30T06:48:41.256Z,98.60
2022-11-30T06:49:41.261Z,98.80
2022-11-30T06:50:45.484Z,99.01
2022-11-30T06:51:42.230Z,98.18
2022-11-30T06:52:41.219Z,98.49
2022-11-30T06:53:41.230Z,99.11
2022-11-30T06:54:41.197Z,98.44
2022-11-30T06:55:41.202Z,98.24
2022-11-30T06:56:41.182Z,98.24
2022-11-30T06:57:41.164Z,98.39
2022-11-30T06:58:41.159Z,98.18
2022-11-30T06:59:41.159Z,98.28
2022-11-30T07:00:41.243Z,98.13
2022-11-30T07:01:41.121Z,98.60
2022-11-30T07:02:41.106Z,98.75
2022-11-30T07:03:41.209Z,98.70
2022-11-30T07:04:41.091Z,99.11
2022-11-30T07:05:41.096Z,99.11
2022-11-30T07:06:41.087Z,98.91
2022-11-30T07:07:41.169Z,98.91
2022-11-30T07:08:41.041Z,98.80
2022-11-30T07:09:41.061Z,98.70
2022-11-30T07:10:41.016Z,98.70
2022-11-30T07:11:41.020Z,98.08
2022-11-30T07:12:41.011Z,98.60
2022-11-30T07:13:41.000Z,98.08
2022-11-30T07:14:40.973Z,98.28
2022-11-30T07:15:40.969Z,98.18
2022-11-30T07:16:41.036Z,98.13
2022-11-30T07:17:40.975Z,98.55
2022-11-30T07:18:40.937Z,98.24
2022-11-30T07:19:40.947Z,98.03
2022-11-30T07:20:40.922Z,98.34
2022-11-30T07:21:40.900Z,98.39
2022-11-30T07:22:40.901Z,98.55
2022-11-30T07:23:40.900Z,98.08
2022-11-30T07:24:40.893Z,98.70
2022-11-30T07:25:40.884Z,98.08
2022-11-30T07:26:40.847Z,97.93
2022-11-30T07:27:40.837Z,98.18
2022-11-30T07:28:40.841Z,98.34
2022-11-30T07:29:40.827Z,98.44
2022-11-30T07:30:40.812Z,97.72
2022-11-30T07:31:40.864Z,97.72
2022-11-30T07:32:40.788Z,98.24
2022-11-30T07:33:40.811Z,98.34
2022-11-30T07:34:40.771Z,98.55
2022-11-30T07:35:40.755Z,98.08
2022-11-30T07:36:40.748Z,98.44
2022-11-30T07:37:40.733Z,98.34
2022-11-30T07:38:40.735Z,97.93
2022-11-30T07:39:40.729Z,97.66
2022-11-30T07:40:40.699Z,98.03
2022-11-30T07:41:40.708Z,98.24
2022-11-30T07:42:40.694Z,98.34
2022-11-30T07:43:40.683Z,98.13
2022-11-30T07:44:40.654Z,97.93
2022-11-30T07:45:40.719Z,98.34
2022-11-30T07:46:40.633Z,98.03
2022-11-30T07:47:40.620Z,98.34
2022-11-30T07:48:40.632Z,98.03
2022-11-30T07:49:40.611Z,97.93
2022-11-30T07:50:40.617Z,98.13
2022-11-30T07:51:40.584Z,98.08
2022-11-30T07:52:40.573Z,98.28
2022-11-30T07:53:40.561Z,98.75
2022-11-30T07:54:40.585Z,98.39
2022-11-30T07:55:40.545Z,98.34
2022-11-30T07:56:40.575Z,98.28
2022-11-30T07:57:40.558Z,99.32
2022-11-30T07:58:40.505Z,98.44
2022-11-30T07:59:40.502Z,98.24
2022-11-30T08:00:40.491Z,98.03
2022-11-30T08:01:40.698Z,98.34
2022-11-30T08:02:40.484Z,98.24
2022-11-30T08:03:40.465Z,98.34
2022-11-30T08:04:40.542Z,98.28
2022-11-30T08:05:40.429Z,98.34
2022-11-30T08:06:40.428Z,98.55
2022-11-30T08:07:40.469Z,98.13
2022-11-30T08:08:40.419Z,97.52
2022-11-30T08:09:40.394Z,97.83
2022-11-30T08:10:40.388Z,97.72
2022-11-30T08:11:40.397Z,97.31
2022-11-30T08:12:40.369Z,97.93
2022-11-30T08:13:40.384Z,97.41
2022-11-30T08:15:11.138Z,97.41
2022-11-30T08:15:41.326Z,97.52
2022-11-30T08:16:40.355Z,97.00
2022-11-30T08:17:40.301Z,97.00
2022-11-30T08:18:40.295Z,97.20
2022-11-30T08:19:40.314Z,97.41
2022-11-30T08:20:41.670Z,97.52
2022-11-30T08:21:40.257Z,97.10
2022-11-30T08:22:40.250Z,97.00
2022-11-30T08:23:40.361Z,96.89
2022-11-30T08:24:40.231Z,97.00
2022-11-30T08:25:40.244Z,97.06
2022-11-30T08:26:40.229Z,97.00
2022-11-30T08:27:40.196Z,96.89
2022-11-30T08:28:40.206Z,96.85
2022-11-30T08:29:40.196Z,96.89
2022-11-30T08:30:40.259Z,96.54
2022-11-30T08:31:40.160Z,97.10
2022-11-30T08:32:40.141Z,96.69
2022-11-30T08:33:40.155Z,97.20
2022-11-30T08:34:40.118Z,96.23
2022-11-30T08:35:40.112Z,96.75
2022-11-30T08:36:40.115Z,96.75
2022-11-30T08:37:40.134Z,96.54
2022-11-30T08:38:40.083Z,95.75
2022-11-30T08:39:40.092Z,96.48
2022-11-30T08:40:40.065Z,96.64
2022-11-30T08:41:40.067Z,96.48
2022-11-30T08:42:40.042Z,96.69
2022-11-30T08:43:40.053Z,97.06
2022-11-30T08:44:40.041Z,96.75
2022-11-30T08:45:40.036Z,96.75
2022-11-30T08:46:51.527Z,96.23
2022-11-30T08:47:41.004Z,96.75
2022-11-30T08:48:40.183Z,96.54
2022-11-30T08:49:39.976Z,96.12
2022-11-30T08:50:39.991Z,96.64
2022-11-30T08:52:14.685Z,96.64
2022-11-30T08:52:40.934Z,96.33
2022-11-30T08:53:39.972Z,95.71
2022-11-30T08:54:39.940Z,95.71
2022-11-30T08:55:39.903Z,96.12
2022-11-30T08:56:39.896Z,95.50
2022-11-30T08:57:39.891Z,95.19
2022-11-30T08:58:39.924Z,95.29
2022-11-30T08:59:39.873Z,95.92
2022-11-30T09:00:39.847Z,95.50
2022-11-30T09:01:39.872Z,95.40
2022-11-30T09:02:39.917Z,95.92
2022-11-30T09:03:39.835Z,95.40
2022-11-30T09:04:39.810Z,95.09
2022-11-30T09:05:39.851Z,95.19
2022-11-30T09:06:39.807Z,95.29
2022-11-30T09:07:39.852Z,94.94
2022-11-30T09:08:41.229Z,95.36
2022-11-30T09:09:39.763Z,95.46
2022-11-30T09:10:39.762Z,94.84
2022-11-30T09:11:39.732Z,94.73
2022-11-30T09:12:39.724Z,94.73
2022-11-30T09:13:39.732Z,94.43
2022-11-30T09:14:39.706Z,94.12
2022-11-30T09:15:39.786Z,94.12
2022-11-30T09:16:39.696Z,94.59
2022-11-30T09:17:39.690Z,93.87
2022-11-30T09:18:39.748Z,94.01
2022-11-30T09:19:39.666Z,93.45
2022-11-30T09:20:39.650Z,93.39
2022-11-30T09:21:39.639Z,94.18
2022-11-30T09:22:39.625Z,94.38
2022-11-30T09:23:39.691Z,93.55
2022-11-30T09:24:39.613Z,93.55
2022-11-30T09:25:39.593Z,94.48
2022-11-30T09:26:39.580Z,94.28
2022-11-30T09:27:39.566Z,94.28
2022-11-30T09:28:39.635Z,93.97
2022-11-30T09:29:39.572Z,93.35
2022-11-30T09:30:39.558Z,93.45
2022-11-30T09:31:39.527Z,93.55
2022-11-30T09:32:39.522Z,93.51
2022-11-30T09:33:39.542Z,93.76
2022-11-30T09:34:39.503Z,92.93
2022-11-30T09:35:39.507Z,92.72
2022-11-30T09:36:39.486Z,92.89
2022-11-30T09:37:39.465Z,92.83
2022-11-30T09:38:39.494Z,93.14
2022-11-30T09:39:39.441Z,93.04
2022-11-30T09:40:39.449Z,92.27
2022-11-30T09:41:39.449Z,92.27
2022-11-30T09:42:39.441Z,92.89
2022-11-30T09:43:39.398Z,92.79
2022-11-30T09:44:39.384Z,92.68
2022-11-30T09:45:39.381Z,92.99
2022-11-30T09:46:39.364Z,92.48
2022-11-30T09:47:39.363Z,92.64
2022-11-30T09:48:39.347Z,92.85
2022-11-30T09:49:39.381Z,91.50
2022-11-30T09:50:39.324Z,91.13
2022-11-30T09:51:39.308Z,90.06
2022-11-30T09:52:39.337Z,90.89
2022-11-30T09:53:39.313Z,91.50
2022-11-30T09:54:39.293Z,91.30
2022-11-30T09:55:39.311Z,90.99
2022-11-30T09:56:39.270Z,90.78
2022-11-30T09:57:39.272Z,90.33
2022-11-30T09:58:39.243Z,90.74
2022-11-30T09:59:39.236Z,90.33
2022-11-30T10:00:39.231Z,90.33
2022-11-30T10:01:42.322Z,90.84
2022-11-30T10:02:40.366Z,90.80
2022-11-30T10:03:39.251Z,90.02
2022-11-30T10:04:39.172Z,90.33
2022-11-30T10:05:39.235Z,89.81
2022-11-30T10:06:39.164Z,90.68
2022-11-30T10:07:39.238Z,90.89
2022-11-30T10:08:39.157Z,90.84
2022-11-30T10:09:39.134Z,91.16
2022-11-30T10:10:39.107Z,90.53
2022-11-30T10:11:39.100Z,90.95
2022-11-30T10:12:39.096Z,91.16
2022-11-30T10:13:39.103Z,90.64
2022-11-30T10:14:39.063Z,90.12
2022-11-30T10:15:39.129Z,90.64
2022-11-30T10:16:39.080Z,90.53
2022-11-30T10:17:39.032Z,90.43
2022-11-30T10:18:39.047Z,89.81
2022-11-30T10:19:39.017Z,89.50
2022-11-30T10:20:38.999Z,89.40
2022-11-30T10:21:39.019Z,90.22
2022-11-30T10:22:38.982Z,89.92
2022-11-30T10:23:38.972Z,89.61
2022-11-30T10:24:39.023Z,89.61
2022-11-30T10:25:38.948Z,90.22
2022-11-30T10:26:38.952Z,91.01
2022-11-30T10:27:38.933Z,90.19
2022-11-30T10:28:46.985Z,90.49
2022-11-30T10:29:39.907Z,90.49
2022-11-30T10:30:38.964Z,89.67
2022-11-30T10:31:38.929Z,89.67
2022-11-30T10:32:38.877Z,90.80
2022-11-30T10:33:38.891Z,90.28
2022-11-30T10:34:38.867Z,89.73
2022-11-30T10:35:38.836Z,88.74
2022-11-30T10:36:38.840Z,88.70
2022-11-30T10:37:38.836Z,89.36
2022-11-30T10:38:38.810Z,89.56
2022-11-30T10:39:38.820Z,89.05
2022-11-30T10:40:38.787Z,88.32
2022-11-30T10:41:38.772Z,89.22
2022-11-30T10:42:38.762Z,88.70
2022-11-30T10:43:38.768Z,88.08
2022-11-30T10:44:38.745Z,88.49
2022-11-30T10:45:38.766Z,88.49
2022-11-30T10:46:38.831Z,88.70
2022-11-30T10:47:38.710Z,88.56
2022-11-30T10:48:38.722Z,87.83
2022-11-30T10:49:38.692Z,87.21
2022-11-30T10:50:38.678Z,87.26
2022-11-30T10:51:38.696Z,86.84
2022-11-30T10:52:38.686Z,86.90
2022-11-30T10:53:38.676Z,86.39
2022-11-30T10:54:38.649Z,86.29
2022-11-30T10:55:38.629Z,86.90
2022-11-30T10:56:38.623Z,86.24
2022-11-30T10:57:38.614Z,86.15
2022-11-30T10:58:38.625Z,85.36
2022-11-30T10:59:38.581Z,86.08
2022-11-30T11:00:38.582Z,85.73
2022-11-30T11:01:38.617Z,85.52
2022-11-30T11:02:38.614Z,85.97
2022-11-30T11:03:38.622Z,86.35
2022-11-30T11:04:38.524Z,86.55
2022-11-30T11:05:38.523Z,87.03
2022-11-30T11:06:38.572Z,87.54
2022-11-30T11:07:38.527Z,85.38
2022-11-30T11:08:38.495Z,86.24
2022-11-30T11:09:38.526Z,85.94
2022-11-30T11:10:38.475Z,86.15
2022-11-30T11:11:38.451Z,85.73
2022-11-30T11:12:38.451Z,86.24
2022-11-30T11:13:38.439Z,86.24
2022-11-30T11:14:38.452Z,86.15
2022-11-30T11:15:38.463Z,86.15
2022-11-30T11:16:38.397Z,85.83
2022-11-30T11:17:38.408Z,85.52
2022-11-30T11:18:38.381Z,85.22
2022-11-30T11:19:38.379Z,84.70
2022-11-30T11:20:38.367Z,85.17
2022-11-30T11:21:38.345Z,85.28
2022-11-30T11:22:38.358Z,85.11
2022-11-30T11:23:38.333Z,84.39
2022-11-30T11:24:38.323Z,84.91
2022-11-30T11:25:38.340Z,85.42
2022-11-30T11:26:38.418Z,85.52
2022-11-30T11:27:44.226Z,85.42
2022-11-30T11:28:39.291Z,84.80
2022-11-30T11:29:38.263Z,84.49
2022-11-30T11:30:38.253Z,83.77
2022-11-30T11:31:38.333Z,84.08
2022-11-30T11:32:38.229Z,84.29
2022-11-30T11:33:38.226Z,84.39
2022-11-30T11:34:38.221Z,84.56
2022-11-30T11:35:38.207Z,83.98
2022-11-30T11:36:38.210Z,83.42
2022-11-30T11:37:38.185Z,83.98
2022-11-30T11:38:38.173Z,84.08
2022-11-30T11:39:38.155Z,83.94
2022-11-30T11:40:38.149Z,84.66
2022-11-30T11:41:38.174Z,84.77
2022-11-30T11:42:38.123Z,85.07
2022-11-30T11:43:38.116Z,84.77
2022-11-30T11:44:38.093Z,84.83
2022-11-30T11:45:38.094Z,83.94
2022-11-30T11:46:38.198Z,84.45
2022-11-30T11:47:38.085Z,85.07
2022-11-30T11:48:38.061Z,84.97
2022-11-30T11:49:38.047Z,85.31
2022-11-30T11:51:39.043Z,86.10
2022-11-30T11:52:38.025Z,86.04
2022-11-30T11:53:43.881Z,85.77
2022-11-30T11:54:39.020Z,86.24
2022-11-30T11:55:37.978Z,86.55
2022-11-30T11:56:38.004Z,86.70
2022-11-30T11:57:37.994Z,86.29
2022-11-30T11:58:37.959Z,85.94
2022-11-30T11:59:37.960Z,86.87
2022-11-30T12:00:38.147Z,85.94
2022-11-30T12:01:40.375Z,86.35
2022-11-30T12:02:38.065Z,86.15
2022-11-30T12:03:37.916Z,86.18
2022-11-30T12:04:37.967Z,86.24
2022-11-30T12:05:37.886Z,85.83
2022-11-30T12:06:37.872Z,86.90
2022-11-30T12:07:37.913Z,86.97
2022-11-30T12:08:37.857Z,86.80
2022-11-30T12:09:37.850Z,86.18
2022-11-30T12:10:53.684Z,86.90
2022-11-30T12:11:38.828Z,86.87
2022-11-30T12:12:44.415Z,87.07
2022-11-30T12:13:38.837Z,87.69
2022-11-30T12:14:37.812Z,87.27
2022-11-30T12:15:37.773Z,86.90
2022-11-30T12:16:37.768Z,87.63
2022-11-30T12:17:37.750Z,87.38
2022-11-30T12:18:37.777Z,87.63
2022-11-30T12:19:37.729Z,87.21
2022-11-30T12:20:37.729Z,87.42
2022-11-30T12:21:37.721Z,87.11
2022-11-30T12:22:37.712Z,87.63
2022-11-30T12:23:37.690Z,86.80
2022-11-30T12:24:37.690Z,87.52
2022-11-30T12:25:37.661Z,87.52
2022-11-30T12:26:37.668Z,87.83
2022-11-30T12:27:37.664Z,87.63
2022-11-30T12:28:37.627Z,87.38
2022-11-30T12:29:45.733Z,87.42
2022-11-30T12:30:37.614Z,87.38
2022-11-30T12:31:37.680Z,87.32
2022-11-30T12:32:37.603Z,86.90
2022-11-30T12:33:37.585Z,87.32
2022-11-30T12:34:37.644Z,87.21
2022-11-30T12:35:37.579Z,87.11
2022-11-30T12:36:37.549Z,86.87
2022-11-30T12:37:38.488Z,87.63
2022-11-30T12:38:37.525Z,87.52
2022-11-30T12:39:37.571Z,87.59
2022-11-30T12:40:37.555Z,87.21
2022-11-30T12:41:37.511Z,87.32
2022-11-30T12:42:37.500Z,87.98
2022-11-30T12:43:37.487Z,87.52
2022-11-30T12:44:42.117Z,87.63
2022-11-30T12:45:38.479Z,87.52
2022-11-30T12:46:37.507Z,87.21
2022-11-30T12:47:37.448Z,87.21
2022-11-30T12:48:37.481Z,86.87
2022-11-30T12:49:37.433Z,86.97
2022-11-30T12:50:37.394Z,87.07
2022-11-30T12:51:37.396Z,87.69
2022-11-30T12:52:37.416Z,86.87
2022-11-30T12:53:37.360Z,86.90